sensor_id;sensor_type;location;lat;lon;timestamp;pressure;altitude;pressure_sealevel;temperature;humidity
17505;BME280;8870;50.950;11.762;2023-07-13T00:00:27;98081.16;;;20.37;100.00
17505;BME280;8870;50.950;11.762;2023-07-13T00:05:57;98085.81;;;20.37;100.00
17505;BME280;8870;50.950;11.762;2023-07-13T00:11:29;98091.75;;;20.33;100.00
17505;BME280;8870;50.950;11.762;2023-07-13T00:16:48;98104.81;;;20.31;100.00
17505;BME280;8870;50.950;11.762;2023-07-13T00:22:25;98111.25;;;20.25;100.00
17505;BME280;8870;50.950;11.762;2023-07-13T00:27:44;98109.66;;;20.17;100.00
17505;BME280;8870;50.950;11.762;2023-07-13T00:33:15;98114.06;;;20.19;100.00
17505;BME280;8870;50.950;11.762;2023-07-13T00:38:50;98111.09;;;20.20;100.00
17505;BME280;8870;50.950;11.762;2023-07-13T00:44:12;98118.09;;;20.16;100.00
17505;BME280;8870;50.950;11.762;2023-07-13T00:49:45;98110.19;;;20.08;100.00
17505;BME280;8870;50.950;11.762;2023-07-13T00:55:07;98112.81;;;20.02;100.00
17505;BME280;8870;50.950;11.762;2023-07-13T01:00:40;98113.25;;;19.99;100.00
17505;BME280;8870;50.950;11.762;2023-07-13T01:05:58;98109.91;;;19.97;100.00
17505;BME280;8870;50.950;11.762;2023-07-13T01:11:33;98117.66;;;20.00;100.00
17505;BME280;8870;50.950;11.762;2023-07-13T01:17:00;98117.91;;;19.99;100.00
17505;BME280;8870;50.950;11.762;2023-07-13T01:22:35;98121.69;;;19.98;100.00
17505;BME280;8870;50.950;11.762;2023-07-13T01:27:55;98120.47;;;19.94;100.00
17505;BME280;8870;50.950;11.762;2023-07-13T01:33:27;98120.09;;;19.90;100.00
17505;BME280;8870;50.950;11.762;2023-07-13T01:39:04;98113.63;;;19.84;100.00
17505;BME280;8870;50.950;11.762;2023-07-13T01:44:23;98106.94;;;19.80;100.00
17505;BME280;8870;50.950;11.762;2023-07-13T01:49:55;98109.31;;;19.77;100.00
17505;BME280;8870;50.950;11.762;2023-07-13T01:55:16;98109.13;;;19.71;100.00
17505;BME280;8870;50.950;11.762;2023-07-13T02:00:48;98094.00;;;19.57;100.00
17505;BME280;8870;50.950;11.762;2023-07-13T02:06:08;98108.53;;;19.32;100.00
17505;BME280;8870;50.950;11.762;2023-07-13T02:11:42;98108.22;;;19.22;100.00
17505;BME280;8870;50.950;11.762;2023-07-13T02:17:06;98117.97;;;19.11;100.00
17505;BME280;8870;50.950;11.762;2023-07-13T02:22:37;98113.00;;;19.01;100.00
17505;BME280;8870;50.950;11.762;2023-07-13T02:27:58;98117.34;;;18.84;100.00
17505;BME280;8870;50.950;11.762;2023-07-13T02:33:30;98131.09;;;18.70;100.00
17505;BME280;8870;50.950;11.762;2023-07-13T02:39:03;98140.59;;;18.61;100.00
17505;BME280;8870;50.950;11.762;2023-07-13T02:44:24;98128.69;;;18.55;100.00
17505;BME280;8870;50.950;11.762;2023-07-13T02:49:55;98128.88;;;18.54;100.00
17505;BME280;8870;50.950;11.762;2023-07-13T02:55:13;98131.03;;;18.52;100.00
17505;BME280;8870;50.950;11.762;2023-07-13T03:00:48;98131.88;;;18.45;100.00
17505;BME280;8870;50.950;11.762;2023-07-13T03:06:06;98142.44;;;18.35;100.00
17505;BME280;8870;50.950;11.762;2023-07-13T03:11:38;98146.53;;;18.12;100.00
17505;BME280;8870;50.950;11.762;2023-07-13T03:17:04;98151.66;;;17.89;100.00
17505;BME280;8870;50.950;11.762;2023-07-13T03:22:29;98154.19;;;17.77;100.00
17505;BME280;8870;50.950;11.762;2023-07-13T03:27:54;98165.31;;;17.75;100.00
17505;BME280;8870;50.950;11.762;2023-07-13T03:33:22;98161.53;;;17.76;100.00
17505;BME280;8870;50.950;11.762;2023-07-13T03:38:55;98159.44;;;17.78;100.00
17505;BME280;8870;50.950;11.762;2023-07-13T03:44:23;98174.34;;;17.76;100.00
17505;BME280;8870;50.950;11.762;2023-07-13T03:49:57;98175.78;;;17.78;100.00
17505;BME280;8870;50.950;11.762;2023-07-13T03:55:16;98181.25;;;17.78;100.00
17505;BME280;8870;50.950;11.762;2023-07-13T04:00:48;98172.66;;;17.81;100.00
17505;BME280;8870;50.950;11.762;2023-07-13T04:06:14;98177.00;;;17.82;100.00
17505;BME280;8870;50.950;11.762;2023-07-13T04:11:47;98178.09;;;17.81;100.00
17505;BME280;8870;50.950;11.762;2023-07-13T04:17:06;98183.53;;;17.81;100.00
17505;BME280;8870;50.950;11.762;2023-07-13T04:22:39;98188.34;;;17.86;100.00
17505;BME280;8870;50.950;11.762;2023-07-13T04:27:57;98189.19;;;17.80;100.00
17505;BME280;8870;50.950;11.762;2023-07-13T04:33:28;98179.13;;;17.80;100.00
17505;BME280;8870;50.950;11.762;2023-07-13T04:39:05;98190.25;;;17.72;100.00
17505;BME280;8870;50.950;11.762;2023-07-13T04:44:24;98199.69;;;17.69;100.00
17505;BME280;8870;50.950;11.762;2023-07-13T04:49:56;98195.53;;;17.67;100.00
17505;BME280;8870;50.950;11.762;2023-07-13T04:55:19;98200.75;;;17.62;100.00
17505;BME280;8870;50.950;11.762;2023-07-13T05:00:53;98206.41;;;17.67;100.00
17505;BME280;8870;50.950;11.762;2023-07-13T05:06:12;98212.69;;;17.67;100.00
17505;BME280;8870;50.950;11.762;2023-07-13T05:11:47;98213.31;;;17.69;100.00
17505;BME280;8870;50.950;11.762;2023-07-13T05:17:05;98213.31;;;17.76;100.00
17505;BME280;8870;50.950;11.762;2023-07-13T05:22:37;98210.97;;;17.86;100.00
17505;BME280;8870;50.950;11.762;2023-07-13T05:27:58;98211.38;;;17.97;100.00
17505;BME280;8870;50.950;11.762;2023-07-13T05:33:30;98212.00;;;18.06;100.00
17505;BME280;8870;50.950;11.762;2023-07-13T05:39:03;98222.22;;;18.17;100.00
17505;BME280;8870;50.950;11.762;2023-07-13T05:44:24;98232.22;;;18.30;100.00
17505;BME280;8870;50.950;11.762;2023-07-13T05:49:55;98231.13;;;18.44;100.00
17505;BME280;8870;50.950;11.762;2023-07-13T05:55:15;98233.44;;;18.47;100.00
17505;BME280;8870;50.950;11.762;2023-07-13T06:00:59;98244.38;;;18.41;100.00
17505;BME280;8870;50.950;11.762;2023-07-13T06:06:19;98242.69;;;18.40;100.00
17505;BME280;8870;50.950;11.762;2023-07-13T06:11:50;98241.25;;;18.37;100.00
17505;BME280;8870;50.950;11.762;2023-07-13T06:17:10;98248.13;;;18.46;100.00
17505;BME280;8870;50.950;11.762;2023-07-13T06:22:42;98247.84;;;18.61;100.00
17505;BME280;8870;50.950;11.762;2023-07-13T06:28:02;98248.38;;;18.77;100.00
17505;BME280;8870;50.950;11.762;2023-07-13T06:33:36;98253.91;;;19.02;100.00
17505;BME280;8870;50.950;11.762;2023-07-13T06:38:55;98250.16;;;19.29;100.00
17505;BME280;8870;50.950;11.762;2023-07-13T06:44:27;98260.31;;;19.47;100.00
17505;BME280;8870;50.950;11.762;2023-07-13T06:49:48;98261.88;;;19.61;100.00
17505;BME280;8870;50.950;11.762;2023-07-13T06:55:20;98265.41;;;19.68;100.00
17505;BME280;8870;50.950;11.762;2023-07-13T07:00:39;98261.38;;;19.71;100.00
17505;BME280;8870;50.950;11.762;2023-07-13T07:06:16;98275.94;;;19.90;100.00
17505;BME280;8870;50.950;11.762;2023-07-13T07:11:35;98274.28;;;20.08;100.00
17505;BME280;8870;50.950;11.762;2023-07-13T07:17:17;98274.44;;;20.31;100.00
17505;BME280;8870;50.950;11.762;2023-07-13T07:22:38;98283.25;;;20.33;100.00
17505;BME280;8870;50.950;11.762;2023-07-13T07:28:09;98289.47;;;20.41;100.00
17505;BME280;8870;50.950;11.762;2023-07-13T07:33:37;98286.00;;;20.33;100.00
17505;BME280;8870;50.950;11.762;2023-07-13T07:39:14;98287.81;;;20.21;100.00
17505;BME280;8870;50.950;11.762;2023-07-13T07:44:46;98289.03;;;20.25;100.00
17505;BME280;8870;50.950;11.762;2023-07-13T07:50:05;98286.28;;;20.44;100.00
17505;BME280;8870;50.950;11.762;2023-07-13T07:55:38;98290.91;;;20.62;100.00
17505;BME280;8870;50.950;11.762;2023-07-13T08:01:03;98288.69;;;20.71;100.00
17505;BME280;8870;50.950;11.762;2023-07-13T08:06:38;98288.56;;;20.84;100.00
17505;BME280;8870;50.950;11.762;2023-07-13T08:11:58;98293.84;;;20.98;100.00
17505;BME280;8870;50.950;11.762;2023-07-13T08:17:50;98288.03;;;21.06;100.00
17505;BME280;8870;50.950;11.762;2023-07-13T08:23:09;98280.81;;;21.23;100.00
17505;BME280;8870;50.950;11.762;2023-07-13T08:28:43;98285.72;;;21.33;100.00
17505;BME280;8870;50.950;11.762;2023-07-13T08:34:09;98287.19;;;21.48;100.00
17505;BME280;8870;50.950;11.762;2023-07-13T08:39:40;98277.47;;;21.76;100.00
17505;BME280;8870;50.950;11.762;2023-07-13T08:45:07;98284.88;;;21.87;96.54
17505;BME280;8870;50.950;11.762;2023-07-13T08:50:46;98280.22;;;21.88;93.12
17505;BME280;8870;50.950;11.762;2023-07-13T08:56:14;98290.81;;;21.60;89.76
17505;BME280;8870;50.950;11.762;2023-07-13T09:02:02;98293.56;;;21.60;87.40
17505;BME280;8870;50.950;11.762;2023-07-13T09:07:29;98288.69;;;21.86;83.32
17505;BME280;8870;50.950;11.762;2023-07-13T09:13:13;98287.47;;;21.94;76.93
17505;BME280;8870;50.950;11.762;2023-07-13T09:18:38;98284.75;;;21.94;73.44
17505;BME280;8870;50.950;11.762;2023-07-13T09:24:30;98288.06;;;22.20;71.25
17505;BME280;8870;50.950;11.762;2023-07-13T09:29:58;98285.06;;;22.33;69.17
17505;BME280;8870;50.950;11.762;2023-07-13T09:35:36;98300.59;;;22.27;67.13
17505;BME280;8870;50.950;11.762;2023-07-13T09:41:05;98311.69;;;22.21;67.65
17505;BME280;8870;50.950;11.762;2023-07-13T09:46:45;98318.75;;;22.16;63.38
17505;BME280;8870;50.950;11.762;2023-07-13T09:52:11;98304.41;;;22.50;61.09
17505;BME280;8870;50.950;11.762;2023-07-13T09:57:46;98303.78;;;22.60;57.78
17505;BME280;8870;50.950;11.762;2023-07-13T10:03:16;98318.19;;;22.79;58.27
17505;BME280;8870;50.950;11.762;2023-07-13T10:08:51;98307.63;;;22.88;57.88
17505;BME280;8870;50.950;11.762;2023-07-13T10:14:12;98305.63;;;23.12;58.46
17505;BME280;8870;50.950;11.762;2023-07-13T10:19:48;98297.44;;;23.29;57.18
17505;BME280;8870;50.950;11.762;2023-07-13T10:25:18;98308.72;;;23.16;55.79
17505;BME280;8870;50.950;11.762;2023-07-13T10:30:53;98312.34;;;23.04;53.68
17505;BME280;8870;50.950;11.762;2023-07-13T10:36:17;98303.03;;;23.05;52.72
17505;BME280;8870;50.950;11.762;2023-07-13T10:41:57;98302.47;;;23.32;52.16
17505;BME280;8870;50.950;11.762;2023-07-13T10:47:16;98297.38;;;23.58;52.19
17505;BME280;8870;50.950;11.762;2023-07-13T10:52:49;98309.72;;;23.73;50.41
17505;BME280;8870;50.950;11.762;2023-07-13T10:58:21;98303.31;;;23.67;51.07
17505;BME280;8870;50.950;11.762;2023-07-13T11:03:55;98300.06;;;23.70;51.25
17505;BME280;8870;50.950;11.762;2023-07-13T11:09:35;98303.72;;;24.10;47.87
17505;BME280;8870;50.950;11.762;2023-07-13T11:15:13;98309.66;;;23.84;48.42
17505;BME280;8870;50.950;11.762;2023-07-13T11:20:35;98307.69;;;24.19;49.31
17505;BME280;8870;50.950;11.762;2023-07-13T11:26:40;98291.06;;;24.53;47.96
17505;BME280;8870;50.950;11.762;2023-07-13T11:32:25;98283.59;;;24.49;46.12
17505;BME280;8870;50.950;11.762;2023-07-13T11:38:01;98302.56;;;24.45;47.01
17505;BME280;8870;50.950;11.762;2023-07-13T11:43:21;98279.88;;;24.38;48.07
17505;BME280;8870;50.950;11.762;2023-07-13T11:48:58;98303.63;;;24.44;46.64
17505;BME280;8870;50.950;11.762;2023-07-13T11:54:23;98289.88;;;24.66;47.79
17505;BME280;8870;50.950;11.762;2023-07-13T11:59:55;98297.53;;;24.42;47.16
17505;BME280;8870;50.950;11.762;2023-07-13T12:05:17;98294.41;;;24.55;47.16
17505;BME280;8870;50.950;11.762;2023-07-13T12:10:56;98277.13;;;24.60;46.41
17505;BME280;8870;50.950;11.762;2023-07-13T12:16:16;98286.50;;;24.81;47.13
17505;BME280;8870;50.950;11.762;2023-07-13T12:21:53;98293.91;;;24.58;47.19
17505;BME280;8870;50.950;11.762;2023-07-13T12:27:19;98297.06;;;24.89;45.59
17505;BME280;8870;50.950;11.762;2023-07-13T12:38:27;98296.59;;;24.53;46.93
17505;BME280;8870;50.950;11.762;2023-07-13T12:43:59;98286.88;;;25.17;45.83
17505;BME280;8870;50.950;11.762;2023-07-13T12:49:17;98297.44;;;24.76;45.12
17505;BME280;8870;50.950;11.762;2023-07-13T12:54:58;98294.50;;;24.83;44.71
17505;BME280;8870;50.950;11.762;2023-07-13T13:00:24;98307.28;;;24.50;45.98
17505;BME280;8870;50.950;11.762;2023-07-13T13:05:58;98316.88;;;24.86;46.16
17505;BME280;8870;50.950;11.762;2023-07-13T13:11:22;98307.56;;;24.92;44.94
17505;BME280;8870;50.950;11.762;2023-07-13T13:16:54;98310.53;;;25.13;44.45
17505;BME280;8870;50.950;11.762;2023-07-13T13:22:12;98314.38;;;25.12;46.04
17505;BME280;8870;50.950;11.762;2023-07-13T13:27:46;98313.97;;;25.53;45.38
17505;BME280;8870;50.950;11.762;2023-07-13T13:33:08;98320.81;;;25.78;44.26
17505;BME280;8870;50.950;11.762;2023-07-13T13:38:41;98310.34;;;25.75;43.05
17505;BME280;8870;50.950;11.762;2023-07-13T13:44:04;98321.38;;;25.47;43.35
17505;BME280;8870;50.950;11.762;2023-07-13T13:49:39;98319.16;;;25.44;44.03
17505;BME280;8870;50.950;11.762;2023-07-13T13:54:58;98316.72;;;25.48;43.88
17505;BME280;8870;50.950;11.762;2023-07-13T14:00:31;98321.34;;;25.42;44.68
17505;BME280;8870;50.950;11.762;2023-07-13T14:05:50;98324.44;;;25.83;44.16
17505;BME280;8870;50.950;11.762;2023-07-13T14:11:23;98320.53;;;25.19;44.21
17505;BME280;8870;50.950;11.762;2023-07-13T14:16:45;98325.44;;;25.39;43.46
17505;BME280;8870;50.950;11.762;2023-07-13T14:22:17;98321.56;;;25.13;44.17
17505;BME280;8870;50.950;11.762;2023-07-13T14:27:36;98309.22;;;25.43;44.39
17505;BME280;8870;50.950;11.762;2023-07-13T14:33:11;98320.06;;;25.88;43.03
17505;BME280;8870;50.950;11.762;2023-07-13T14:38:29;98325.53;;;25.77;42.59
17505;BME280;8870;50.950;11.762;2023-07-13T14:44:00;98327.38;;;26.04;41.97
17505;BME280;8870;50.950;11.762;2023-07-13T14:49:25;98307.66;;;26.23;41.89
17505;BME280;8870;50.950;11.762;2023-07-13T14:54:57;98320.06;;;25.55;42.78
17505;BME280;8870;50.950;11.762;2023-07-13T15:00:17;98316.53;;;25.32;43.50
17505;BME280;8870;50.950;11.762;2023-07-13T15:05:52;98321.53;;;25.63;42.94
17505;BME280;8870;50.950;11.762;2023-07-13T15:11:10;98312.38;;;26.27;42.74
17505;BME280;8870;50.950;11.762;2023-07-13T15:16:42;98317.81;;;25.79;41.75
17505;BME280;8870;50.950;11.762;2023-07-13T15:22:04;98303.81;;;25.91;42.79
17505;BME280;8870;50.950;11.762;2023-07-13T15:27:35;98304.53;;;26.62;41.27
17505;BME280;8870;50.950;11.762;2023-07-13T15:32:55;98309.09;;;25.98;41.78
17505;BME280;8870;50.950;11.762;2023-07-13T15:38:31;98306.16;;;25.72;41.72
17505;BME280;8870;50.950;11.762;2023-07-13T15:43:50;98308.16;;;25.82;42.44
17505;BME280;8870;50.950;11.762;2023-07-13T15:49:24;98294.97;;;25.89;42.12
17505;BME280;8870;50.950;11.762;2023-07-13T15:54:45;98309.00;;;25.50;42.32
17505;BME280;8870;50.950;11.762;2023-07-13T16:00:21;98314.25;;;25.24;43.31
17505;BME280;8870;50.950;11.762;2023-07-13T16:05:46;98310.56;;;25.68;43.13
17505;BME280;8870;50.950;11.762;2023-07-13T16:11:24;98315.03;;;26.12;42.37
17505;BME280;8870;50.950;11.762;2023-07-13T16:16:42;98306.91;;;26.00;42.64
17505;BME280;8870;50.950;11.762;2023-07-13T16:22:18;98311.75;;;25.82;43.22
17505;BME280;8870;50.950;11.762;2023-07-13T16:27:40;98316.94;;;25.41;43.43
17505;BME280;8870;50.950;11.762;2023-07-13T16:33:12;98321.88;;;25.17;43.39
17505;BME280;8870;50.950;11.762;2023-07-13T16:38:30;98317.50;;;24.93;43.78
17505;BME280;8870;50.950;11.762;2023-07-13T16:44:09;98332.13;;;24.72;44.04
17505;BME280;8870;50.950;11.762;2023-07-13T16:49:30;98331.97;;;24.61;45.51
17505;BME280;8870;50.950;11.762;2023-07-13T16:55:01;98342.31;;;24.54;45.80
17505;BME280;8870;50.950;11.762;2023-07-13T17:00:25;98337.72;;;24.38;45.08
17505;BME280;8870;50.950;11.762;2023-07-13T17:06:00;98343.56;;;24.24;45.65
17505;BME280;8870;50.950;11.762;2023-07-13T17:11:21;98347.16;;;24.08;47.18
17505;BME280;8870;50.950;11.762;2023-07-13T17:16:57;98351.47;;;24.38;47.18
17505;BME280;8870;50.950;11.762;2023-07-13T17:22:16;98350.00;;;24.52;47.30
17505;BME280;8870;50.950;11.762;2023-07-13T17:27:50;98341.75;;;24.69;47.22
17505;BME280;8870;50.950;11.762;2023-07-13T17:33:26;98349.81;;;24.59;46.77
17505;BME280;8870;50.950;11.762;2023-07-13T17:38:59;98349.69;;;24.49;47.26
17505;BME280;8870;50.950;11.762;2023-07-13T17:44:19;98360.50;;;24.55;46.96
17505;BME280;8870;50.950;11.762;2023-07-13T17:49:53;98359.03;;;24.47;46.85
17505;BME280;8870;50.950;11.762;2023-07-13T17:55:16;98370.94;;;24.14;47.25
17505;BME280;8870;50.950;11.762;2023-07-13T18:00:48;98369.28;;;23.96;47.83
17505;BME280;8870;50.950;11.762;2023-07-13T18:06:12;98379.34;;;23.90;48.70
17505;BME280;8870;50.950;11.762;2023-07-13T18:11:45;98375.34;;;23.81;48.39
17505;BME280;8870;50.950;11.762;2023-07-13T18:17:04;98383.72;;;23.57;49.50
17505;BME280;8870;50.950;11.762;2023-07-13T18:22:39;98377.94;;;23.42;50.41
17505;BME280;8870;50.950;11.762;2023-07-13T18:27:57;98379.56;;;23.14;50.81
17505;BME280;8870;50.950;11.762;2023-07-13T18:33:30;98392.06;;;22.92;51.37
17505;BME280;8870;50.950;11.762;2023-07-13T18:38:52;98405.72;;;22.75;51.76
17505;BME280;8870;50.950;11.762;2023-07-13T18:44:24;98403.69;;;22.59;53.01
17505;BME280;8870;50.950;11.762;2023-07-13T18:49:43;98411.31;;;22.33;53.56
17505;BME280;8870;50.950;11.762;2023-07-13T18:55:21;98408.81;;;22.20;54.71
17505;BME280;8870;50.950;11.762;2023-07-13T19:00:41;98408.66;;;22.02;54.68
17505;BME280;8870;50.950;11.762;2023-07-13T19:06:22;98418.41;;;21.86;55.67
17505;BME280;8870;50.950;11.762;2023-07-13T19:11:45;98421.59;;;21.72;56.26
17505;BME280;8870;50.950;11.762;2023-07-13T19:17:18;98429.56;;;21.61;57.26
17505;BME280;8870;50.950;11.762;2023-07-13T19:22:36;98431.75;;;21.52;56.90
17505;BME280;8870;50.950;11.762;2023-07-13T19:28:24;98441.84;;;21.40;58.40
17505;BME280;8870;50.950;11.762;2023-07-13T19:33:43;98451.38;;;21.37;58.31
17505;BME280;8870;50.950;11.762;2023-07-13T19:39:25;98456.31;;;21.29;59.81
17505;BME280;8870;50.950;11.762;2023-07-13T19:44:47;98468.78;;;21.24;59.82
17505;BME280;8870;50.950;11.762;2023-07-13T19:50:19;98481.13;;;21.15;61.55
17505;BME280;8870;50.950;11.762;2023-07-13T19:55:39;98488.59;;;21.08;61.05
17505;BME280;8870;50.950;11.762;2023-07-13T20:01:15;98495.59;;;21.04;62.23
17505;BME280;8870;50.950;11.762;2023-07-13T20:06:33;98498.56;;;21.02;61.50
17505;BME280;8870;50.950;11.762;2023-07-13T20:12:10;98501.31;;;21.02;62.44
17505;BME280;8870;50.950;11.762;2023-07-13T20:17:34;98507.84;;;21.01;61.80
17505;BME280;8870;50.950;11.762;2023-07-13T20:23:10;98513.78;;;20.98;62.29
17505;BME280;8870;50.950;11.762;2023-07-13T20:28:29;98532.31;;;20.96;62.59
17505;BME280;8870;50.950;11.762;2023-07-13T20:34:05;98533.13;;;20.53;98.48
17505;BME280;8870;50.950;11.762;2023-07-13T20:39:37;98548.63;;;20.33;100.00
17505;BME280;8870;50.950;11.762;2023-07-13T20:44:55;98558.00;;;20.19;100.00
17505;BME280;8870;50.950;11.762;2023-07-13T20:50:30;98577.53;;;19.77;100.00
17505;BME280;8870;50.950;11.762;2023-07-13T20:55:48;98578.34;;;19.39;100.00
17505;BME280;8870;50.950;11.762;2023-07-13T21:01:23;98574.63;;;18.93;100.00
17505;BME280;8870;50.950;11.762;2023-07-13T21:06:45;98582.63;;;18.61;100.00
17505;BME280;8870;50.950;11.762;2023-07-13T21:12:16;98593.72;;;18.32;100.00
17505;BME280;8870;50.950;11.762;2023-07-13T21:17:34;98590.31;;;18.10;100.00
17505;BME280;8870;50.950;11.762;2023-07-13T21:23:24;98598.06;;;18.07;100.00
17505;BME280;8870;50.950;11.762;2023-07-13T21:28:45;98606.00;;;18.01;100.00
17505;BME280;8870;50.950;11.762;2023-07-13T21:34:18;98613.09;;;17.96;100.00
17505;BME280;8870;50.950;11.762;2023-07-13T21:39:40;98623.94;;;17.82;100.00
17505;BME280;8870;50.950;11.762;2023-07-13T21:45:21;98639.81;;;17.72;100.00
17505;BME280;8870;50.950;11.762;2023-07-13T21:50:42;98633.53;;;17.71;100.00
17505;BME280;8870;50.950;11.762;2023-07-13T21:56:19;98638.38;;;17.76;100.00
17505;BME280;8870;50.950;11.762;2023-07-13T22:01:37;98633.97;;;17.75;100.00
17505;BME280;8870;50.950;11.762;2023-07-13T22:07:09;98642.78;;;17.77;100.00
17505;BME280;8870;50.950;11.762;2023-07-13T22:12:31;98639.81;;;17.72;100.00
17505;BME280;8870;50.950;11.762;2023-07-13T22:18:09;98640.19;;;17.55;100.00
17505;BME280;8870;50.950;11.762;2023-07-13T22:23:48;98641.34;;;17.39;100.00
17505;BME280;8870;50.950;11.762;2023-07-13T22:29:25;98642.13;;;17.33;100.00
17505;BME280;8870;50.950;11.762;2023-07-13T22:34:52;98653.22;;;17.32;100.00
17505;BME280;8870;50.950;11.762;2023-07-13T22:40:24;98649.22;;;17.28;100.00
17505;BME280;8870;50.950;11.762;2023-07-13T22:45:47;98649.59;;;17.24;100.00
17505;BME280;8870;50.950;11.762;2023-07-13T22:51:20;98642.94;;;17.27;100.00
17505;BME280;8870;50.950;11.762;2023-07-13T22:56:40;98644.97;;;17.18;100.00
17505;BME280;8870;50.950;11.762;2023-07-13T23:02:17;98646.41;;;17.14;100.00
17505;BME280;8870;50.950;11.762;2023-07-13T23:07:49;98657.19;;;17.01;100.00
17505;BME280;8870;50.950;11.762;2023-07-13T23:13:08;98653.53;;;16.93;100.00
17505;BME280;8870;50.950;11.762;2023-07-13T23:18:42;98658.28;;;16.63;100.00
17505;BME280;8870;50.950;11.762;2023-07-13T23:24:01;98659.25;;;16.33;100.00
17505;BME280;8870;50.950;11.762;2023-07-13T23:29:32;98658.66;;;16.16;100.00
17505;BME280;8870;50.950;11.762;2023-07-13T23:34:53;98661.56;;;16.15;100.00
17505;BME280;8870;50.950;11.762;2023-07-13T23:40:26;98655.81;;;16.25;100.00
17505;BME280;8870;50.950;11.762;2023-07-13T23:45:44;98649.53;;;16.24;100.00
17505;BME280;8870;50.950;11.762;2023-07-13T23:51:21;98659.63;;;16.30;100.00
17505;BME280;8870;50.950;11.762;2023-07-13T23:56:40;98650.00;;;16.28;100.00
